createdAt,value
2018-02-03T00:01:44.535Z,86.30
2018-02-03T00:04:10.935Z,85.40
2018-02-03T00:06:37.346Z,85.30
2018-02-03T00:09:03.806Z,85.00
2018-02-03T00:11:30.979Z,84.80
2018-02-03T00:13:57.398Z,84.80
2018-02-03T00:16:23.830Z,85.50
2018-02-03T00:18:50.224Z,84.90
2018-02-03T00:21:16.607Z,84.10
2018-02-03T00:23:43.036Z,85.20
2018-02-03T00:26:09.418Z,84.70
2018-02-03T00:28:35.934Z,84.70
2018-02-03T00:31:02.314Z,84.70
2018-02-03T00:33:28.678Z,84.70
2018-02-03T00:35:55.086Z,84.90
2018-02-03T00:38:21.475Z,85.70
2018-02-03T00:40:47.861Z,86.30
2018-02-03T00:43:14.347Z,86.60
2018-02-03T00:45:40.737Z,86.50
2018-02-03T00:48:07.107Z,86.40
2018-02-03T00:50:33.490Z,87.00
2018-02-03T00:52:59.875Z,87.00
2018-02-03T00:55:26.275Z,86.70
2018-02-03T00:57:52.670Z,86.50
2018-02-03T01:00:19.664Z,86.60
2018-02-03T01:02:46.048Z,86.60
2018-02-03T01:05:13.053Z,86.50
2018-02-03T01:07:39.494Z,86.50
2018-02-03T01:10:05.902Z,86.30
2018-02-03T01:12:32.282Z,87.20
2018-02-03T01:14:58.684Z,86.50
2018-02-03T01:17:25.071Z,86.30
2018-02-03T01:19:51.474Z,86.70
2018-02-03T01:22:18.618Z,87.10
2018-02-03T01:24:45.718Z,88.10
2018-02-03T01:27:12.090Z,87.50
2018-02-03T01:29:38.467Z,87.70
2018-02-03T01:32:05.743Z,87.20
2018-02-03T01:34:32.139Z,87.20
2018-02-03T01:36:58.510Z,86.90
2018-02-03T01:39:24.947Z,86.70
2018-02-03T01:41:51.371Z,86.80
2018-02-03T01:44:17.762Z,86.90
2018-02-03T01:46:44.170Z,86.70
2018-02-03T01:49:11.310Z,87.40
2018-02-03T01:51:37.700Z,87.40
2018-02-03T01:54:04.142Z,87.40
2018-02-03T01:56:30.591Z,87.40
2018-02-03T01:58:56.983Z,87.20
2018-02-03T02:01:23.387Z,87.30
2018-02-03T02:03:50.510Z,87.90
2018-02-03T02:06:16.890Z,87.80
2018-02-03T02:08:43.266Z,87.40
2018-02-03T02:11:09.728Z,87.00
2018-02-03T02:13:36.859Z,87.40
2018-02-03T02:16:03.265Z,87.40
2018-02-03T02:18:29.636Z,87.90
2018-02-03T02:20:57.500Z,87.70
2018-02-03T02:23:23.896Z,87.70
2018-02-03T02:25:50.263Z,87.70
2018-02-03T02:28:16.655Z,88.20
2018-02-03T02:30:43.071Z,87.80
2018-02-03T02:33:09.491Z,87.60
2018-02-03T02:35:35.901Z,87.50
2018-02-03T02:38:03.039Z,88.80
2018-02-03T02:40:29.453Z,88.10
2018-02-03T02:42:55.829Z,88.00
2018-02-03T02:45:22.243Z,87.70
2018-02-03T02:47:48.641Z,87.40
2018-02-03T02:50:15.096Z,87.70
2018-02-03T02:52:41.475Z,87.40
2018-02-03T02:55:07.843Z,87.60
2018-02-03T02:57:34.244Z,88.40
2018-02-03T03:00:00.630Z,88.20
2018-02-03T03:02:28.502Z,87.90
2018-02-03T03:04:54.911Z,87.80
2018-02-03T03:07:21.319Z,87.90
2018-02-03T03:09:47.704Z,88.30
2018-02-03T03:12:14.085Z,88.30
2018-02-03T03:14:40.473Z,88.40
2018-02-03T03:17:07.705Z,87.50
2018-02-03T03:19:34.039Z,87.30
2018-02-03T03:22:00.447Z,87.60
2018-02-03T03:24:26.829Z,87.80
2018-02-03T03:26:53.225Z,88.80
2018-02-03T03:29:19.692Z,88.80
2018-02-03T03:31:46.093Z,88.60
2018-02-03T03:34:13.218Z,87.30
2018-02-03T03:36:39.582Z,87.40
2018-02-03T03:39:05.961Z,87.60
2018-02-03T03:41:32.351Z,86.90
2018-02-03T03:43:59.470Z,86.90
2018-02-03T03:46:25.863Z,86.50
2018-02-03T03:48:52.229Z,86.30
2018-02-03T03:51:18.614Z,86.10
2018-02-03T03:53:44.988Z,86.30
2018-02-03T03:56:11.357Z,86.10
2018-02-03T03:58:37.734Z,85.80
2018-02-03T04:01:04.141Z,85.50
2018-02-03T04:03:30.575Z,86.00
2018-02-03T04:05:56.964Z,86.00
2018-02-03T04:08:23.440Z,85.20
2018-02-03T04:10:49.809Z,86.10
2018-02-03T04:13:16.242Z,85.40
2018-02-03T04:15:42.647Z,85.90
2018-02-03T04:18:09.014Z,86.60
2018-02-03T04:20:35.402Z,87.30
2018-02-03T04:23:01.766Z,87.50
2018-02-03T04:25:28.166Z,88.00
2018-02-03T04:27:54.563Z,88.70
2018-02-03T04:30:21.043Z,88.80
2018-02-03T04:32:47.520Z,89.20
2018-02-03T04:35:13.915Z,89.40
2018-02-03T04:37:40.338Z,88.70
2018-02-03T04:40:06.718Z,88.10
2018-02-03T04:42:33.151Z,88.40
2018-02-03T04:44:59.521Z,89.10
2018-02-03T04:47:25.922Z,88.00
2018-02-03T04:49:52.626Z,87.60
2018-02-03T04:52:19.008Z,87.60
2018-02-03T04:54:46.160Z,87.90
2018-02-03T04:57:12.538Z,87.90
2018-02-03T04:59:38.915Z,87.40
2018-02-03T05:02:06.063Z,87.50
2018-02-03T05:04:32.445Z,87.30
2018-02-03T05:06:58.839Z,87.00
2018-02-03T05:09:26.001Z,87.30
2018-02-03T05:11:52.403Z,87.30
2018-02-03T05:14:19.534Z,87.50
2018-02-03T05:16:45.931Z,87.50
2018-02-03T05:19:12.350Z,87.80
2018-02-03T05:21:38.744Z,87.90
2018-02-03T05:24:05.115Z,87.70
2018-02-03T05:26:31.495Z,87.20
2018-02-03T05:28:57.930Z,87.70
2018-02-03T05:31:24.318Z,87.20
2018-02-03T05:33:50.709Z,87.20
2018-02-03T05:36:17.146Z,87.70
2018-02-03T05:38:44.342Z,89.30
2018-02-03T05:41:10.775Z,89.30
2018-02-03T05:43:37.283Z,89.50
2018-02-03T05:46:03.730Z,88.90
2018-02-03T05:48:30.161Z,88.30
2018-02-03T05:50:56.530Z,88.00
2018-02-03T05:53:22.971Z,87.70
2018-02-03T05:55:49.337Z,88.10
2018-02-03T05:58:16.457Z,88.50
2018-02-03T06:00:43.602Z,88.20
2018-02-03T06:03:10.128Z,88.20
2018-02-03T06:05:37.276Z,87.00
2018-02-03T06:08:03.669Z,87.00
2018-02-03T06:10:30.058Z,86.90
2018-02-03T06:12:56.444Z,87.00
2018-02-03T06:15:22.887Z,87.30
2018-02-03T06:17:49.258Z,87.40
2018-02-03T06:20:15.661Z,87.20
2018-02-03T06:22:42.038Z,87.30
2018-02-03T06:25:09.154Z,87.50
2018-02-03T06:27:35.538Z,87.50
2018-02-03T06:30:01.919Z,87.60
2018-02-03T06:32:28.294Z,87.50
2018-02-03T06:34:54.697Z,87.70
2018-02-03T06:37:21.091Z,87.90
2018-02-03T06:39:47.470Z,87.60
2018-02-03T06:42:13.862Z,87.20
2018-02-03T06:44:40.251Z,86.70
2018-02-03T06:47:07.504Z,86.90
2018-02-03T06:49:34.199Z,86.90
2018-02-03T06:52:00.621Z,87.10
2018-02-03T06:54:26.998Z,87.60
2018-02-03T06:56:54.145Z,88.00
2018-02-03T06:59:21.382Z,87.70
2018-02-03T07:01:47.786Z,87.70
2018-02-03T07:04:14.172Z,87.90
2018-02-03T07:06:40.618Z,88.80
2018-02-03T07:09:07.045Z,89.10
2018-02-03T07:11:33.462Z,89.40
2018-02-03T07:13:59.881Z,88.60
2018-02-03T07:16:26.322Z,89.40
2018-02-03T07:18:53.497Z,87.00
2018-02-03T07:21:19.887Z,86.90
2018-02-03T07:23:46.263Z,87.30
2018-02-03T07:26:12.732Z,86.40
2018-02-03T07:28:39.155Z,86.40
2018-02-03T07:31:05.583Z,85.20
2018-02-03T07:33:31.962Z,84.30
2018-02-03T07:35:58.330Z,84.40
2018-02-03T07:38:24.731Z,84.50
2018-02-03T07:40:51.855Z,84.40
2018-02-03T07:43:18.238Z,84.20
2018-02-03T07:45:44.664Z,84.10
2018-02-03T07:48:11.100Z,84.30
2018-02-03T07:50:37.502Z,84.30
2018-02-03T07:53:03.901Z,84.40
2018-02-03T07:55:30.297Z,84.50
2018-02-03T07:57:56.673Z,84.60
2018-02-03T08:00:23.055Z,84.30
2018-02-03T08:02:49.433Z,84.20
2018-02-03T08:05:15.819Z,84.00
2018-02-03T08:07:42.223Z,84.10
2018-02-03T08:10:09.364Z,85.20
2018-02-03T08:12:36.499Z,85.30
2018-02-03T08:15:02.895Z,85.20
2018-02-03T08:17:29.317Z,85.30
2018-02-03T08:19:55.713Z,85.70
2018-02-03T08:22:22.083Z,86.10
2018-02-03T08:24:48.513Z,86.90
2018-02-03T08:27:14.918Z,86.70
2018-02-03T08:29:41.299Z,86.50
2018-02-03T08:32:07.756Z,86.30
2018-02-03T08:34:34.142Z,86.00
2018-02-03T08:37:01.266Z,85.50
2018-02-03T08:39:28.387Z,84.90
2018-02-03T08:41:54.791Z,84.90
2018-02-03T08:44:21.174Z,84.70
2018-02-03T08:46:47.574Z,84.60
2018-02-03T08:49:13.973Z,85.60
2018-02-03T08:51:40.367Z,86.10
2018-02-03T08:54:06.765Z,87.10
2018-02-03T08:56:33.186Z,87.10
2018-02-03T08:58:59.563Z,86.80
2018-02-03T09:01:26.039Z,85.60
2018-02-03T09:03:52.629Z,84.80
2018-02-03T09:06:19.792Z,84.20
2018-02-03T09:08:46.157Z,84.10
2018-02-03T09:11:12.525Z,83.90
2018-02-03T09:13:38.918Z,84.00
2018-02-03T09:16:05.307Z,83.80
2018-02-03T09:18:31.694Z,84.00
2018-02-03T09:20:58.080Z,83.40
2018-02-03T09:23:24.445Z,83.10
2018-02-03T09:25:50.842Z,81.80
2018-02-03T09:28:17.975Z,82.50
2018-02-03T09:30:44.349Z,82.50
2018-02-03T09:33:10.734Z,81.90
2018-02-03T09:35:37.133Z,81.50
2018-02-03T09:38:03.744Z,81.30
2018-02-03T09:40:30.114Z,81.40
2018-02-03T09:42:56.501Z,81.40
2018-02-03T09:45:23.613Z,81.10
2018-02-03T09:47:50.020Z,81.10
2018-02-03T09:50:16.424Z,80.80
2018-02-03T09:52:42.821Z,81.20
2018-02-03T09:55:09.199Z,81.20
2018-02-03T09:57:35.551Z,81.20
2018-02-03T10:00:01.934Z,81.00
2018-02-03T10:02:29.048Z,81.00
2018-02-03T10:04:55.459Z,81.00
2018-02-03T10:07:21.955Z,81.70
2018-02-03T10:09:48.434Z,81.40
2018-02-03T10:12:14.859Z,81.30
2018-02-03T10:14:41.290Z,81.50
2018-02-03T10:17:07.721Z,81.30
2018-02-03T10:19:34.138Z,81.10
2018-02-03T10:22:00.538Z,81.10
2018-02-03T10:24:27.690Z,80.90
2018-02-03T10:26:54.844Z,81.30
2018-02-03T10:29:22.013Z,81.60
2018-02-03T10:31:48.414Z,81.60
2018-02-03T10:34:14.845Z,81.00
2018-02-03T10:36:41.974Z,81.70
2018-02-03T10:39:08.386Z,81.30
2018-02-03T10:41:34.790Z,81.50
2018-02-03T10:44:01.260Z,81.60
2018-02-03T10:46:27.826Z,82.20
2018-02-03T10:48:54.277Z,82.10
2018-02-03T10:51:21.463Z,82.40
2018-02-03T10:53:47.875Z,82.40
2018-02-03T10:56:14.323Z,82.40
2018-02-03T10:58:40.834Z,82.70
2018-02-03T11:01:09.980Z,82.60
2018-02-03T11:03:36.413Z,82.60
2018-02-03T11:06:02.800Z,82.00
2018-02-03T11:08:29.957Z,81.60
2018-02-03T11:10:56.984Z,81.60
2018-02-03T11:13:24.138Z,81.90
2018-02-03T11:15:51.456Z,81.10
2018-02-03T11:18:17.909Z,81.00
2018-02-03T11:20:45.076Z,80.70
2018-02-03T11:23:12.246Z,80.20
2018-02-03T11:25:38.690Z,80.20
2018-02-03T11:28:05.157Z,80.30
2018-02-03T11:30:32.500Z,80.30
2018-02-03T11:32:58.936Z,80.70
2018-02-03T11:35:27.189Z,80.10
2018-02-03T11:37:53.646Z,80.10
2018-02-03T11:40:20.115Z,79.80
2018-02-03T11:42:47.310Z,79.70
2018-02-03T11:45:13.751Z,79.70
2018-02-03T11:47:40.235Z,79.50
2018-02-03T11:50:06.762Z,79.70
2018-02-03T11:52:33.155Z,79.60
2018-02-03T11:54:59.538Z,79.00
2018-02-03T11:57:26.768Z,78.40
2018-02-03T11:59:53.149Z,78.40
2018-02-03T12:02:19.574Z,78.40
2018-02-03T12:04:46.742Z,78.90
2018-02-03T12:07:13.132Z,78.90
2018-02-03T12:09:40.296Z,78.80
2018-02-03T12:12:06.719Z,78.80
2018-02-03T12:14:33.862Z,78.40
2018-02-03T12:17:00.987Z,78.90
2018-02-03T12:19:27.426Z,78.30
2018-02-03T12:21:53.882Z,78.40
2018-02-03T12:24:21.003Z,78.90
2018-02-03T12:26:47.380Z,78.90
2018-02-03T12:29:14.569Z,78.40
2018-02-03T12:31:41.014Z,78.40
2018-02-03T12:34:07.440Z,78.20
2018-02-03T12:36:33.882Z,78.00
2018-02-03T12:39:00.259Z,78.40
2018-02-03T12:41:27.419Z,79.40
2018-02-03T12:43:53.858Z,79.40
2018-02-03T12:46:20.260Z,79.40
2018-02-03T12:48:47.424Z,79.70
2018-02-03T12:51:14.598Z,79.20
2018-02-03T12:53:40.970Z,79.20
2018-02-03T12:56:07.397Z,79.40
2018-02-03T12:58:34.577Z,78.80
2018-02-03T13:01:01.747Z,78.50
2018-02-03T13:03:28.121Z,78.50
2018-02-03T13:05:54.546Z,78.70
2018-02-03T13:08:21.907Z,79.00
2018-02-03T13:10:48.294Z,78.50
2018-02-03T13:13:14.721Z,79.10
2018-02-03T13:15:41.842Z,80.10
2018-02-03T13:18:08.222Z,80.00
2018-02-03T13:20:34.618Z,80.90
2018-02-03T13:23:01.814Z,80.80
2018-02-03T13:25:28.957Z,80.60
2018-02-03T13:27:55.330Z,80.60
2018-02-03T13:30:21.698Z,80.50
2018-02-03T13:32:48.821Z,80.40
2018-02-03T13:35:15.963Z,80.60
2018-02-03T13:37:42.356Z,80.60
2018-02-03T13:40:08.760Z,80.10
2018-02-03T13:42:35.958Z,80.00
2018-02-03T13:45:02.353Z,79.90
2018-02-03T13:47:28.758Z,80.30
2018-02-03T13:49:55.890Z,80.10
2018-02-03T13:52:22.298Z,80.10
2018-02-03T13:54:48.731Z,79.70
2018-02-03T13:57:15.147Z,80.10
2018-02-03T13:59:41.801Z,81.10
2018-02-03T14:02:08.359Z,81.10
2018-02-03T14:04:34.733Z,81.20
2018-02-03T14:07:01.175Z,82.60
2018-02-03T14:09:27.748Z,82.20
2018-02-03T14:11:54.991Z,81.80
2018-02-03T14:14:21.644Z,81.90
2018-02-03T14:16:48.878Z,81.90
2018-02-03T14:19:15.290Z,81.80
2018-02-03T14:21:41.733Z,81.20
2018-02-03T14:24:14.370Z,81.70
2018-02-03T14:26:40.867Z,81.70
2018-02-03T14:29:07.288Z,80.90
2018-02-03T14:31:33.721Z,81.20
2018-02-03T14:34:00.127Z,81.40
2018-02-03T14:36:26.554Z,81.60
2018-02-03T14:38:52.985Z,81.70
2018-02-03T14:41:19.419Z,81.30
2018-02-03T14:43:46.321Z,80.70
2018-02-03T14:46:13.511Z,80.70
2018-02-03T14:48:39.923Z,80.70
2018-02-03T14:51:07.084Z,80.80
2018-02-03T14:53:33.523Z,80.80
2018-02-03T14:55:59.968Z,81.00
2018-02-03T14:58:26.387Z,80.90
2018-02-03T15:00:52.847Z,80.60
2018-02-03T15:03:19.304Z,80.10
2018-02-03T15:05:45.755Z,79.70
2018-02-03T15:08:12.944Z,79.50
2018-02-03T15:10:39.394Z,78.90
2018-02-03T15:13:05.811Z,79.00
2018-02-03T15:15:32.275Z,79.20
2018-02-03T15:17:58.733Z,79.30
2018-02-03T15:20:25.160Z,79.50
2018-02-03T15:22:51.596Z,79.60
2018-02-03T15:25:18.771Z,79.90
2018-02-03T15:27:45.942Z,79.70
2018-02-03T15:30:12.344Z,79.50
2018-02-03T15:32:39.701Z,81.00
2018-02-03T15:35:06.876Z,81.60
2018-02-03T15:37:33.383Z,81.60
2018-02-03T15:40:00.560Z,82.30
2018-02-03T15:42:26.990Z,82.20
2018-02-03T15:44:53.473Z,82.40
2018-02-03T15:47:20.648Z,82.70
2018-02-03T15:49:47.117Z,82.60
2018-02-03T15:52:13.610Z,82.50
2018-02-03T15:54:40.041Z,82.30
2018-02-03T15:57:07.288Z,82.30
2018-02-03T15:59:33.718Z,82.30
2018-02-03T16:02:00.136Z,82.50
2018-02-03T16:04:26.578Z,82.20
2018-02-03T16:06:53.045Z,82.40
2018-02-03T16:09:19.469Z,82.50
2018-02-03T16:11:45.893Z,82.30
2018-02-03T16:14:12.286Z,82.40
2018-02-03T16:16:38.653Z,82.70
2018-02-03T16:19:05.026Z,82.80
2018-02-03T16:21:31.494Z,82.80
2018-02-03T16:23:57.954Z,83.00
2018-02-03T16:26:24.394Z,83.00
2018-02-03T16:28:50.863Z,82.80
2018-02-03T16:31:17.323Z,82.90
2018-02-03T16:33:43.746Z,82.50
2018-02-03T16:36:11.765Z,83.10
2018-02-03T16:38:38.919Z,83.00
2018-02-03T16:41:05.306Z,83.50
2018-02-03T16:43:31.694Z,82.70
2018-02-03T16:45:58.862Z,81.70
2018-02-03T16:48:25.251Z,81.60
2018-02-03T16:50:51.663Z,81.70
2018-02-03T16:53:18.053Z,81.50
2018-02-03T16:55:44.428Z,81.30
2018-02-03T16:58:10.826Z,81.10
2018-02-03T17:00:37.258Z,81.00
2018-02-03T17:03:03.669Z,80.60
2018-02-03T17:05:30.083Z,80.40
2018-02-03T17:07:57.248Z,80.70
2018-02-03T17:10:24.370Z,80.50
2018-02-03T17:12:50.795Z,81.00
2018-02-03T17:15:17.287Z,80.40
2018-02-03T17:17:43.641Z,80.50
2018-02-03T17:20:10.097Z,80.50
2018-02-03T17:22:36.686Z,80.50
2018-02-03T17:25:03.119Z,80.70
2018-02-03T17:27:29.624Z,80.60
2018-02-03T17:29:56.069Z,80.70
2018-02-03T17:32:22.541Z,80.60
2018-02-03T17:34:49.025Z,80.40
2018-02-03T17:37:21.548Z,80.40
2018-02-03T17:39:47.970Z,80.20
2018-02-03T17:42:14.392Z,80.30
2018-02-03T17:44:40.788Z,80.00
2018-02-03T17:47:08.127Z,80.00
2018-02-03T17:49:34.581Z,80.10
2018-02-03T17:52:01.707Z,80.30
2018-02-03T17:54:28.526Z,80.20
2018-02-03T17:57:01.033Z,80.30
2018-02-03T17:59:27.464Z,80.40
2018-02-03T18:01:53.867Z,80.60
2018-02-03T18:04:20.262Z,80.60
2018-02-03T18:06:53.442Z,80.60
2018-02-03T18:09:20.566Z,80.50
2018-02-03T18:11:46.968Z,80.50
2018-02-03T18:14:13.364Z,80.30
2018-02-03T18:16:40.524Z,80.80
2018-02-03T18:19:06.947Z,80.80
2018-02-03T18:21:34.096Z,80.70
2018-02-03T18:24:01.255Z,80.60
2018-02-03T18:26:27.680Z,80.60
2018-02-03T18:28:54.822Z,80.90
2018-02-03T18:31:21.939Z,81.30
2018-02-03T18:33:48.371Z,80.70
2018-02-03T18:36:14.804Z,80.90
2018-02-03T18:38:41.186Z,81.20
2018-02-03T18:41:07.638Z,81.70
2018-02-03T18:43:34.036Z,80.90
2018-02-03T18:46:01.177Z,80.60
2018-02-03T18:48:28.323Z,80.60
2018-02-03T18:50:54.703Z,80.60
2018-02-03T18:53:21.064Z,80.40
2018-02-03T18:55:47.474Z,80.40
2018-02-03T18:58:13.878Z,80.40
2018-02-03T19:00:40.342Z,80.20
2018-02-03T19:03:06.746Z,80.00
2018-02-03T19:05:33.169Z,80.20
2018-02-03T19:07:59.558Z,80.20
2018-02-03T19:10:25.938Z,80.30
2018-02-03T19:12:52.342Z,80.30
2018-02-03T19:15:18.727Z,80.50
2018-02-03T19:17:45.114Z,80.50
2018-02-03T19:20:12.288Z,81.30
2018-02-03T19:22:38.703Z,80.70
2018-02-03T19:25:05.103Z,80.90
2018-02-03T19:27:31.554Z,80.70
2018-02-03T19:29:58.727Z,80.70
2018-02-03T19:32:25.130Z,80.60
2018-02-03T19:34:51.601Z,80.80
2018-02-03T19:37:18.042Z,80.60
2018-02-03T19:39:44.511Z,80.60
2018-02-03T19:42:13.207Z,80.70
2018-02-03T19:44:40.144Z,80.70
2018-02-03T19:47:07.568Z,80.80
2018-02-03T19:49:34.021Z,80.70
2018-02-03T19:52:00.445Z,80.80
2018-02-03T19:54:26.875Z,80.70
2018-02-03T19:56:53.294Z,80.90
2018-02-03T19:59:20.461Z,80.80
2018-02-03T20:01:46.867Z,80.80
2018-02-03T20:04:14.961Z,80.70
2018-02-03T20:06:41.403Z,80.80
2018-02-03T20:09:07.806Z,80.60
2018-02-03T20:11:34.335Z,80.30
2018-02-03T20:14:00.803Z,80.50
2018-02-03T20:16:27.458Z,80.50
2018-02-03T20:18:53.999Z,81.10
2018-02-03T20:21:20.440Z,82.00
2018-02-03T20:23:46.914Z,81.30
2018-02-03T20:26:13.293Z,81.30
2018-02-03T20:28:39.701Z,81.40
2018-02-03T20:31:06.114Z,82.20
2018-02-03T20:33:32.555Z,82.40
2018-02-03T20:35:58.953Z,81.90
2018-02-03T20:38:26.070Z,81.40
2018-02-03T20:40:52.502Z,81.40
2018-02-03T20:43:18.912Z,81.00
2018-02-03T20:45:45.301Z,81.10
2018-02-03T20:48:12.526Z,82.20
2018-02-03T20:50:40.455Z,82.20
2018-02-03T20:53:06.920Z,82.20
2018-02-03T20:55:33.346Z,81.90
2018-02-03T20:57:59.776Z,81.60
2018-02-03T21:00:26.191Z,82.00
2018-02-03T21:02:52.613Z,82.20
2018-02-03T21:05:18.997Z,82.40
2018-02-03T21:07:45.391Z,82.20
2018-02-03T21:10:11.897Z,82.10
2018-02-03T21:12:38.287Z,81.80
2018-02-03T21:15:06.386Z,82.30
2018-02-03T21:17:33.511Z,82.20
2018-02-03T21:19:59.938Z,82.10
2018-02-03T21:22:26.303Z,82.20
2018-02-03T21:24:53.543Z,82.40
2018-02-03T21:27:20.656Z,82.20
2018-02-03T21:29:47.051Z,82.10
2018-02-03T21:32:13.430Z,82.30
2018-02-03T21:34:39.809Z,82.50
2018-02-03T21:37:06.205Z,82.30
2018-02-03T21:39:32.603Z,81.80
2018-02-03T21:41:59.018Z,81.70
2018-02-03T21:44:25.413Z,81.90
2018-02-03T21:46:53.266Z,82.30
2018-02-03T21:49:19.671Z,83.00
2018-02-03T21:51:46.054Z,82.60
2018-02-03T21:54:13.233Z,82.90
2018-02-03T21:56:39.639Z,82.90
2018-02-03T21:59:06.806Z,82.60
2018-02-03T22:01:33.186Z,82.60
2018-02-03T22:03:59.661Z,82.30
2018-02-03T22:06:26.784Z,81.70
2018-02-03T22:08:53.178Z,81.70
2018-02-03T22:11:19.624Z,81.50
2018-02-03T22:13:46.023Z,81.20
2018-02-03T22:16:12.472Z,81.30
2018-02-03T22:18:38.854Z,81.40
2018-02-03T22:21:06.029Z,81.80
2018-02-03T22:23:32.471Z,81.90
2018-02-03T22:25:58.931Z,82.30
2018-02-03T22:28:25.314Z,82.20
2018-02-03T22:30:52.414Z,82.10
2018-02-03T22:33:18.815Z,82.10
2018-02-03T22:35:45.179Z,81.90
2018-02-03T22:38:11.559Z,81.50
2018-02-03T22:40:38.691Z,81.40
2018-02-03T22:43:05.058Z,81.40
2018-02-03T22:45:31.454Z,81.40
2018-02-03T22:47:57.842Z,81.40
2018-02-03T22:50:24.238Z,81.70
2018-02-03T22:52:50.655Z,82.30
2018-02-03T22:55:17.011Z,82.50
2018-02-03T22:57:44.134Z,82.40
2018-02-03T23:00:15.335Z,82.60
2018-02-03T23:02:47.886Z,82.30
2018-02-03T23:05:14.292Z,82.80
2018-02-03T23:07:41.430Z,82.80
2018-02-03T23:10:07.812Z,82.30
2018-02-03T23:12:34.183Z,82.40
2018-02-03T23:15:00.629Z,82.30
2018-02-03T23:17:27.066Z,82.30
2018-02-03T23:19:54.176Z,82.00
2018-02-03T23:22:20.573Z,82.00
2018-02-03T23:24:47.004Z,81.90
2018-02-03T23:27:14.143Z,81.70
2018-02-03T23:29:41.272Z,81.50
2018-02-03T23:32:07.658Z,81.50
2018-02-03T23:34:34.047Z,81.30
2018-02-03T23:37:01.150Z,81.40
2018-02-03T23:39:27.545Z,81.40
2018-02-03T23:41:54.719Z,81.30
2018-02-03T23:44:21.098Z,81.30
2018-02-03T23:46:47.563Z,81.30
2018-02-03T23:49:13.997Z,81.60
2018-02-03T23:51:40.445Z,81.60
2018-02-03T23:54:06.814Z,81.60
2018-02-03T23:56:33.190Z,81.50
2018-02-03T23:59:00.366Z,81.70
